createdAt,value
2022-10-05T00:00:52.877Z,93.97
2022-10-05T00:03:37.192Z,94.09
2022-10-05T00:06:13.330Z,94.33
2022-10-05T00:08:45.897Z,94.72
2022-10-05T00:11:19.653Z,94.79
2022-10-05T00:13:53.038Z,95.26
2022-10-05T00:16:25.409Z,95.31
2022-10-05T00:19:00.530Z,95.51
2022-10-05T00:21:34.629Z,95.53
2022-10-05T00:24:15.890Z,95.64
2022-10-05T00:26:52.660Z,95.84
2022-10-05T00:29:29.330Z,95.72
2022-10-05T00:32:02.888Z,95.63
2022-10-05T00:34:36.001Z,95.61
2022-10-05T00:37:08.789Z,95.53
2022-10-05T00:39:42.000Z,95.90
2022-10-05T00:42:37.660Z,95.75
2022-10-05T00:45:14.703Z,96.26
2022-10-05T00:48:02.046Z,96.18
2022-10-05T00:51:02.496Z,96.41
2022-10-05T00:53:44.700Z,96.61
2022-10-05T00:56:40.728Z,96.35
2022-10-05T00:59:23.808Z,96.28
2022-10-05T01:02:04.034Z,96.20
2022-10-05T01:04:44.153Z,96.34
2022-10-05T01:07:24.985Z,96.52
2022-10-05T01:10:04.531Z,96.49
2022-10-05T01:12:44.528Z,96.85
2022-10-05T01:15:28.193Z,96.94
2022-10-05T01:18:09.880Z,97.12
2022-10-05T01:20:51.632Z,97.19
2022-10-05T01:23:55.747Z,97.33
2022-10-05T01:26:45.186Z,97.32
2022-10-05T01:29:23.483Z,97.16
2022-10-05T01:32:01.437Z,97.29
2022-10-05T01:34:40.885Z,97.58
2022-10-05T01:37:22.972Z,97.44
2022-10-05T01:40:03.949Z,97.52
2022-10-05T01:42:43.509Z,97.58
2022-10-05T01:45:24.885Z,97.77
2022-10-05T01:48:05.042Z,97.73
2022-10-05T01:50:48.594Z,97.79
2022-10-05T01:53:32.787Z,98.07
2022-10-05T01:56:13.033Z,97.99
2022-10-05T01:58:57.181Z,97.87
2022-10-05T02:01:37.062Z,98.02
2022-10-05T02:04:35.661Z,98.08
2022-10-05T02:07:15.182Z,98.15
2022-10-05T02:09:54.121Z,98.13
2022-10-05T02:12:31.082Z,98.25
2022-10-05T02:15:10.432Z,98.47
2022-10-05T02:17:47.196Z,98.53
2022-10-05T02:20:25.882Z,98.49
2022-10-05T02:23:03.625Z,98.73
2022-10-05T02:25:38.587Z,98.44
2022-10-05T02:28:14.392Z,98.76
2022-10-05T02:30:52.494Z,98.75
2022-10-05T02:33:30.437Z,98.94
2022-10-05T02:36:09.366Z,98.74
2022-10-05T02:38:57.174Z,98.71
2022-10-05T02:41:40.614Z,98.67
2022-10-05T02:44:20.052Z,98.66
2022-10-05T02:47:04.493Z,98.55
2022-10-05T02:49:45.641Z,98.70
2022-10-05T02:52:26.375Z,98.90
2022-10-05T02:55:02.206Z,98.97
2022-10-05T02:57:40.294Z,99.16
2022-10-05T03:00:17.563Z,99.23
2022-10-05T03:03:02.462Z,99.14
2022-10-05T03:05:40.636Z,99.20
2022-10-05T03:08:23.277Z,98.81
2022-10-05T03:11:05.624Z,98.88
2022-10-05T03:13:49.442Z,99.22
2022-10-05T03:16:37.130Z,99.40
2022-10-05T03:19:23.209Z,99.50
2022-10-05T03:22:02.860Z,99.53
2022-10-05T03:25:00.433Z,99.72
2022-10-05T03:27:42.569Z,99.82
2022-10-05T03:30:20.070Z,99.97
2022-10-05T03:33:04.251Z,99.94
2022-10-05T03:35:46.809Z,99.99
2022-10-05T03:38:27.893Z,99.99
2022-10-05T03:41:10.000Z,100.00
2022-10-05T03:44:12.065Z,100.00
2022-10-05T03:46:56.204Z,100.00
2022-10-05T03:49:42.204Z,100.00
2022-10-05T03:52:27.075Z,100.00
2022-10-05T03:55:05.105Z,100.00
2022-10-05T03:57:40.102Z,100.00
2022-10-05T04:00:18.420Z,100.00
2022-10-05T04:03:01.098Z,100.00
2022-10-05T04:05:39.649Z,100.00
2022-10-05T04:08:22.121Z,100.00
2022-10-05T04:10:57.260Z,100.00
2022-10-05T04:13:35.582Z,100.00
2022-10-05T04:16:14.151Z,100.00
2022-10-05T04:18:51.468Z,100.00
2022-10-05T04:21:34.329Z,100.00
2022-10-05T04:24:12.550Z,100.00
2022-10-05T04:26:51.961Z,100.00
2022-10-05T04:29:40.742Z,100.00
2022-10-05T04:32:30.001Z,100.00
2022-10-05T04:35:25.361Z,100.00
2022-10-05T04:38:04.909Z,100.00
2022-10-05T04:40:49.567Z,100.00
2022-10-05T04:43:33.722Z,100.00
2022-10-05T04:46:19.645Z,100.00
2022-10-05T04:49:15.311Z,100.00
2022-10-05T04:51:57.690Z,100.00
2022-10-05T04:54:44.754Z,100.00
2022-10-05T04:57:23.277Z,100.00
2022-10-05T05:00:06.349Z,100.00
2022-10-05T05:03:23.819Z,100.00
2022-10-05T05:06:17.259Z,100.00
2022-10-05T05:09:30.801Z,100.00
2022-10-05T05:12:30.167Z,100.00
2022-10-05T05:15:23.919Z,100.00
2022-10-05T05:18:20.728Z,100.00
2022-10-05T05:21:03.453Z,100.00
2022-10-05T05:23:43.375Z,100.00
2022-10-05T05:26:25.073Z,100.00
2022-10-05T05:29:06.652Z,100.00
2022-10-05T05:31:46.899Z,100.00
2022-10-05T05:34:26.749Z,100.00
2022-10-05T05:37:06.319Z,100.00
2022-10-05T05:39:50.595Z,100.00
2022-10-05T05:42:39.222Z,100.00
2022-10-05T05:45:23.893Z,100.00
2022-10-05T05:48:00.025Z,100.00
2022-10-05T05:50:49.967Z,100.00
2022-10-05T05:53:26.805Z,100.00
2022-10-05T05:56:09.598Z,100.00
2022-10-05T05:58:50.154Z,100.00
2022-10-05T06:01:33.172Z,100.00
2022-10-05T06:04:15.334Z,100.00
2022-10-05T06:06:52.337Z,100.00
2022-10-05T06:09:32.043Z,100.00
2022-10-05T06:12:22.235Z,100.00
2022-10-05T06:14:59.513Z,100.00
2022-10-05T06:18:40.081Z,100.00
2022-10-05T06:21:44.598Z,100.00
2022-10-05T06:25:06.851Z,100.00
2022-10-05T06:27:59.844Z,100.00
2022-10-05T06:30:42.905Z,100.00
2022-10-05T06:33:26.329Z,100.00
2022-10-05T06:36:13.230Z,100.00
2022-10-05T06:39:04.226Z,100.00
2022-10-05T06:41:50.856Z,100.00
2022-10-05T06:44:28.004Z,100.00
2022-10-05T06:47:35.943Z,100.00
2022-10-05T06:50:38.009Z,100.00
2022-10-05T06:53:34.896Z,100.00
2022-10-05T06:56:16.337Z,100.00
2022-10-05T06:58:57.476Z,100.00
2022-10-05T07:01:45.174Z,100.00
2022-10-05T07:04:36.747Z,100.00
2022-10-05T07:07:21.767Z,99.76
2022-10-05T07:10:12.328Z,99.77
2022-10-05T07:12:55.616Z,99.63
2022-10-05T07:15:53.483Z,100.00
2022-10-05T07:18:37.657Z,98.15
2022-10-05T07:21:18.229Z,97.37
2022-10-05T07:24:00.599Z,94.69
2022-10-05T07:26:39.597Z,93.39
2022-10-05T07:29:29.265Z,92.30
2022-10-05T07:32:13.003Z,93.70
2022-10-05T07:34:54.981Z,95.40
2022-10-05T07:37:54.484Z,95.46
2022-10-05T07:40:33.890Z,95.43
2022-10-05T07:43:23.271Z,94.05
2022-10-05T07:46:06.014Z,89.16
2022-10-05T07:48:53.315Z,87.49
2022-10-05T07:51:34.751Z,85.39
2022-10-05T07:54:25.491Z,84.79
2022-10-05T07:57:06.375Z,84.34
2022-10-05T07:59:46.562Z,83.25
2022-10-05T08:02:28.406Z,83.09
2022-10-05T08:05:10.875Z,81.29
2022-10-05T08:07:43.315Z,79.96
2022-10-05T08:10:31.865Z,79.38
2022-10-05T08:13:13.596Z,79.94
2022-10-05T08:15:48.529Z,79.84
2022-10-05T08:18:27.816Z,79.19
2022-10-05T08:21:00.767Z,79.60
2022-10-05T08:23:43.858Z,79.65
2022-10-05T08:26:23.674Z,79.70
2022-10-05T08:29:08.208Z,79.28
2022-10-05T08:31:46.322Z,78.90
2022-10-05T08:34:27.346Z,79.46
2022-10-05T08:37:05.289Z,79.11
2022-10-05T08:39:42.732Z,79.31
2022-10-05T08:42:45.066Z,80.94
2022-10-05T08:45:45.924Z,79.73
2022-10-05T08:48:35.998Z,78.71
2022-10-05T08:51:44.166Z,75.90
2022-10-05T08:54:36.825Z,75.12
2022-10-05T08:57:43.838Z,75.51
2022-10-05T09:00:19.911Z,75.56
2022-10-05T09:03:29.862Z,75.04
2022-10-05T09:06:24.337Z,75.36
2022-10-05T09:09:15.503Z,74.02
2022-10-05T09:12:04.367Z,72.72
2022-10-05T09:15:01.328Z,71.46
2022-10-05T09:18:25.483Z,70.87
2022-10-05T09:21:02.725Z,70.47
2022-10-05T09:23:42.980Z,69.87
2022-10-05T09:26:46.187Z,69.29
2022-10-05T09:29:55.180Z,69.88
2022-10-05T09:33:09.343Z,69.60
2022-10-05T09:36:15.684Z,69.67
2022-10-05T09:39:10.682Z,69.39
2022-10-05T09:42:09.185Z,69.16
2022-10-05T09:45:21.130Z,69.35
2022-10-05T09:48:15.837Z,69.59
2022-10-05T09:51:09.678Z,69.29
2022-10-05T09:54:13.895Z,69.46
2022-10-05T09:57:12.051Z,69.58
2022-10-05T10:00:21.828Z,69.58
2022-10-05T10:03:21.414Z,69.90
2022-10-05T10:06:15.159Z,69.99
2022-10-05T10:08:59.740Z,70.01
2022-10-05T10:11:52.151Z,70.16
2022-10-05T10:14:54.204Z,70.19
2022-10-05T10:17:45.028Z,70.40
2022-10-05T10:20:27.870Z,70.51
2022-10-05T10:23:25.360Z,70.50
2022-10-05T10:26:19.687Z,70.84
2022-10-05T10:29:30.327Z,71.10
2022-10-05T10:32:19.903Z,71.14
2022-10-05T10:35:20.151Z,71.35
2022-10-05T10:38:24.881Z,71.42
2022-10-05T10:41:36.503Z,72.00
2022-10-05T10:44:47.674Z,72.11
2022-10-05T10:47:51.988Z,71.99
2022-10-05T10:51:02.102Z,71.74
2022-10-05T10:53:52.946Z,72.33
2022-10-05T10:56:55.294Z,72.59
2022-10-05T11:00:04.841Z,72.90
2022-10-05T11:02:59.564Z,72.92
2022-10-05T11:06:08.470Z,72.55
2022-10-05T11:09:02.754Z,72.86
2022-10-05T11:11:58.786Z,72.82
2022-10-05T11:15:06.576Z,72.15
2022-10-05T11:17:58.209Z,72.39
2022-10-05T11:21:06.860Z,72.28
2022-10-05T11:24:01.274Z,72.76
2022-10-05T11:26:59.815Z,72.73
2022-10-05T11:30:07.041Z,72.86
2022-10-05T11:33:04.006Z,72.98
2022-10-05T11:35:52.122Z,73.36
2022-10-05T11:38:48.318Z,72.75
2022-10-05T11:42:04.025Z,72.28
2022-10-05T11:45:14.000Z,72.70
2022-10-05T11:48:04.294Z,73.05
2022-10-05T11:50:40.897Z,73.60
2022-10-05T11:53:21.041Z,73.06
2022-10-05T11:56:04.305Z,72.66
2022-10-05T11:58:43.076Z,73.17
2022-10-05T12:01:27.187Z,73.15
2022-10-05T12:04:07.415Z,73.06
2022-10-05T12:06:54.846Z,73.36
2022-10-05T12:10:03.290Z,73.18
2022-10-05T12:12:44.375Z,72.99
2022-10-05T12:15:26.564Z,72.46
2022-10-05T12:18:08.355Z,72.12
2022-10-05T12:20:47.541Z,72.83
2022-10-05T12:23:28.954Z,72.45
2022-10-05T12:26:04.960Z,72.62
2022-10-05T12:28:42.390Z,72.60
2022-10-05T12:31:31.783Z,72.63
2022-10-05T12:34:14.140Z,72.03
2022-10-05T12:37:04.220Z,72.25
2022-10-05T12:39:48.935Z,72.20
2022-10-05T12:42:31.324Z,72.01
2022-10-05T12:45:17.668Z,72.57
2022-10-05T12:48:06.510Z,72.35
2022-10-05T12:50:43.162Z,72.16
2022-10-05T12:53:30.001Z,72.36
2022-10-05T12:56:10.650Z,72.28
2022-10-05T12:58:52.883Z,72.86
2022-10-05T13:01:35.133Z,72.96
2022-10-05T13:04:19.912Z,72.44
2022-10-05T13:07:11.664Z,72.91
2022-10-05T13:09:53.152Z,72.97
2022-10-05T13:12:36.285Z,72.66
2022-10-05T13:15:16.541Z,72.85
2022-10-05T13:17:58.662Z,72.33
2022-10-05T13:20:35.349Z,72.16
2022-10-05T13:23:14.040Z,72.14
2022-10-05T13:25:53.524Z,72.31
2022-10-05T13:28:32.688Z,71.86
2022-10-05T13:31:14.062Z,70.89
2022-10-05T13:34:02.592Z,71.02
2022-10-05T13:36:45.076Z,70.60
2022-10-05T13:39:39.441Z,69.96
2022-10-05T13:42:16.564Z,69.55
2022-10-05T13:44:54.825Z,69.85
2022-10-05T13:47:35.914Z,70.17
2022-10-05T13:50:18.357Z,70.22
2022-10-05T13:52:57.471Z,70.17
2022-10-05T13:55:42.013Z,69.91
2022-10-05T13:58:25.009Z,70.13
2022-10-05T14:00:59.760Z,70.24
2022-10-05T14:03:35.052Z,70.17
2022-10-05T14:06:14.478Z,70.55
2022-10-05T14:08:53.080Z,70.61
2022-10-05T14:11:31.376Z,70.32
2022-10-05T14:14:14.853Z,70.39
2022-10-05T14:16:55.262Z,70.12
2022-10-05T14:19:28.054Z,69.88
2022-10-05T14:22:12.733Z,70.63
2022-10-05T14:24:55.528Z,70.41
2022-10-05T14:27:30.320Z,70.10
2022-10-05T14:30:18.792Z,70.13
2022-10-05T14:32:56.958Z,70.23
2022-10-05T14:35:31.930Z,70.15
2022-10-05T14:38:18.562Z,70.16
2022-10-05T14:41:05.618Z,70.09
2022-10-05T14:43:38.360Z,70.43
2022-10-05T14:46:29.188Z,70.38
2022-10-05T14:49:25.823Z,70.92
2022-10-05T14:51:58.888Z,70.39
2022-10-05T14:54:36.780Z,71.10
2022-10-05T14:57:19.576Z,70.82
2022-10-05T15:00:10.486Z,71.16
2022-10-05T15:03:18.812Z,71.10
2022-10-05T15:05:54.841Z,71.22
2022-10-05T15:08:41.811Z,71.31
2022-10-05T15:11:25.377Z,71.74
2022-10-05T15:13:59.141Z,71.67
2022-10-05T15:16:41.139Z,71.68
2022-10-05T15:19:20.992Z,71.72
2022-10-05T15:22:06.170Z,71.62
2022-10-05T15:24:45.500Z,71.60
2022-10-05T15:27:34.195Z,71.93
2022-10-05T15:30:12.677Z,71.95
2022-10-05T15:33:00.859Z,72.00
2022-10-05T15:35:40.539Z,72.23
2022-10-05T15:38:26.543Z,72.18
2022-10-05T15:41:11.362Z,72.31
2022-10-05T15:43:53.797Z,72.45
2022-10-05T15:46:35.466Z,72.63
2022-10-05T15:49:19.362Z,72.68
2022-10-05T15:52:02.632Z,72.77
2022-10-05T15:55:06.489Z,72.79
2022-10-05T15:57:45.760Z,72.93
2022-10-05T16:00:23.268Z,72.96
2022-10-05T16:03:06.287Z,73.28
2022-10-05T16:06:04.558Z,73.15
2022-10-05T16:08:56.350Z,73.41
2022-10-05T16:11:48.071Z,73.59
2022-10-05T16:14:33.476Z,73.55
2022-10-05T16:17:25.455Z,73.67
2022-10-05T16:20:12.515Z,73.61
2022-10-05T16:22:55.396Z,73.69
2022-10-05T16:25:35.376Z,74.03
2022-10-05T16:28:18.495Z,73.93
2022-10-05T16:30:59.812Z,73.93
2022-10-05T16:33:46.887Z,74.23
2022-10-05T16:36:36.818Z,74.28
2022-10-05T16:39:16.885Z,74.45
2022-10-05T16:41:57.323Z,74.49
2022-10-05T16:44:39.772Z,74.44
2022-10-05T16:47:38.883Z,74.60
2022-10-05T16:50:29.095Z,74.67
2022-10-05T16:53:04.846Z,74.95
2022-10-05T16:55:42.072Z,74.93
2022-10-05T16:58:21.667Z,74.93
2022-10-05T17:01:06.803Z,75.10
2022-10-05T17:03:50.913Z,75.48
2022-10-05T17:06:41.378Z,75.29
2022-10-05T17:09:23.797Z,75.35
2022-10-05T17:12:13.418Z,75.85
2022-10-05T17:15:01.879Z,75.83
2022-10-05T17:17:49.183Z,75.77
2022-10-05T17:20:42.931Z,76.16
2022-10-05T17:23:32.771Z,76.04
2022-10-05T17:26:34.275Z,76.24
2022-10-05T17:29:18.325Z,76.24
2022-10-05T17:32:33.534Z,76.27
2022-10-05T17:35:19.328Z,76.58
2022-10-05T17:38:24.732Z,76.74
2022-10-05T17:41:26.199Z,77.02
2022-10-05T17:44:20.652Z,77.04
2022-10-05T17:46:54.957Z,77.14
2022-10-05T17:49:48.031Z,77.25
2022-10-05T17:52:45.210Z,77.32
2022-10-05T17:55:36.033Z,77.66
2022-10-05T17:59:01.933Z,77.48
2022-10-05T18:01:36.195Z,77.80
2022-10-05T18:04:34.507Z,78.00
2022-10-05T18:07:19.053Z,78.10
2022-10-05T18:10:02.079Z,78.28
2022-10-05T18:12:48.464Z,78.42
2022-10-05T18:15:48.658Z,78.48
2022-10-05T18:18:57.371Z,78.87
2022-10-05T18:21:36.048Z,79.10
2022-10-05T18:24:28.181Z,78.90
2022-10-05T18:27:16.922Z,79.15
2022-10-05T18:30:05.704Z,79.44
2022-10-05T18:33:16.971Z,79.55
2022-10-05T18:36:01.980Z,79.33
2022-10-05T18:38:57.205Z,79.54
2022-10-05T18:41:41.474Z,79.54
2022-10-05T18:44:31.242Z,79.67
2022-10-05T18:47:13.445Z,80.02
2022-10-05T18:49:57.429Z,80.06
2022-10-05T18:52:43.819Z,80.61
2022-10-05T18:55:24.899Z,80.32
2022-10-05T18:58:21.414Z,80.56
2022-10-05T19:01:10.730Z,80.38
2022-10-05T19:03:55.086Z,80.68
2022-10-05T19:06:31.051Z,80.69
2022-10-05T19:09:16.212Z,80.91
2022-10-05T19:11:56.098Z,80.86
2022-10-05T19:14:38.697Z,80.85
2022-10-05T19:17:24.876Z,80.85
2022-10-05T19:20:10.893Z,81.35
2022-10-05T19:22:54.090Z,81.26
2022-10-05T19:25:37.837Z,81.20
2022-10-05T19:28:27.781Z,81.43
2022-10-05T19:31:21.446Z,81.72
2022-10-05T19:34:07.057Z,81.79
2022-10-05T19:36:54.790Z,81.64
2022-10-05T19:39:39.606Z,81.74
2022-10-05T19:42:32.191Z,81.84
2022-10-05T19:45:18.922Z,82.27
2022-10-05T19:48:01.933Z,82.52
2022-10-05T19:50:35.678Z,82.30
2022-10-05T19:53:17.269Z,82.45
2022-10-05T19:56:20.680Z,82.87
2022-10-05T19:58:57.438Z,82.83
2022-10-05T20:01:35.565Z,82.94
2022-10-05T20:04:09.527Z,82.93
2022-10-05T20:06:42.353Z,82.84
2022-10-05T20:09:24.703Z,83.28
2022-10-05T20:12:01.348Z,83.05
2022-10-05T20:14:58.552Z,83.17
2022-10-05T20:17:49.593Z,83.42
2022-10-05T20:20:26.449Z,83.56
2022-10-05T20:23:25.161Z,83.63
2022-10-05T20:26:14.309Z,84.06
2022-10-05T20:28:47.826Z,84.15
2022-10-05T20:31:20.499Z,84.05
2022-10-05T20:33:52.773Z,83.95
2022-10-05T20:36:24.808Z,84.24
2022-10-05T20:38:56.937Z,84.33
2022-10-05T20:41:29.060Z,84.22
2022-10-05T20:44:01.137Z,84.29
2022-10-05T20:46:34.087Z,84.38
2022-10-05T20:49:09.683Z,84.58
2022-10-05T20:51:44.375Z,84.39
2022-10-05T20:54:19.133Z,84.14
2022-10-05T20:56:51.508Z,84.47
2022-10-05T20:59:27.202Z,84.65
2022-10-05T21:01:59.619Z,84.58
2022-10-05T21:04:40.872Z,84.70
2022-10-05T21:07:15.539Z,84.49
2022-10-05T21:09:47.826Z,84.40
2022-10-05T21:12:19.881Z,84.82
2022-10-05T21:14:52.901Z,84.49
2022-10-05T21:17:28.112Z,84.72
2022-10-05T21:20:00.286Z,84.51
2022-10-05T21:22:32.730Z,84.64
2022-10-05T21:25:09.150Z,84.58
2022-10-05T21:27:44.409Z,84.73
2022-10-05T21:30:17.061Z,84.78
2022-10-05T21:32:49.259Z,84.58
2022-10-05T21:35:21.639Z,84.51
2022-10-05T21:37:56.295Z,84.58
2022-10-05T21:40:28.633Z,84.56
2022-10-05T21:43:00.883Z,84.47
2022-10-05T21:45:33.587Z,84.42
2022-10-05T21:48:06.509Z,84.52
2022-10-05T21:50:40.023Z,84.40
2022-10-05T21:53:14.430Z,84.46
2022-10-05T21:55:50.142Z,84.53
2022-10-05T21:58:23.999Z,84.37
2022-10-05T22:00:56.127Z,84.22
2022-10-05T22:03:28.881Z,84.25
2022-10-05T22:06:01.046Z,84.16
2022-10-05T22:08:35.116Z,84.17
2022-10-05T22:11:15.166Z,83.95
2022-10-05T22:13:49.418Z,83.98
2022-10-05T22:16:24.647Z,83.84
2022-10-05T22:18:57.401Z,84.04
2022-10-05T22:21:32.135Z,84.22
2022-10-05T22:24:06.152Z,84.20
2022-10-05T22:26:38.616Z,84.14
2022-10-05T22:29:10.840Z,83.82
2022-10-05T22:31:43.178Z,84.00
2022-10-05T22:34:19.584Z,83.82
2022-10-05T22:36:52.094Z,83.99
2022-10-05T22:39:24.243Z,83.80
2022-10-05T22:41:58.105Z,83.95
2022-10-05T22:44:33.392Z,84.23
2022-10-05T22:47:06.380Z,84.19
2022-10-05T22:49:38.447Z,84.32
2022-10-05T22:52:10.501Z,84.48
2022-10-05T22:54:42.752Z,84.28
2022-10-05T22:57:17.277Z,84.49
2022-10-05T22:59:49.714Z,84.42
2022-10-05T23:02:22.115Z,84.53
2022-10-05T23:04:54.245Z,84.50
2022-10-05T23:07:26.416Z,84.49
2022-10-05T23:09:59.274Z,84.41
2022-10-05T23:12:34.766Z,84.29
2022-10-05T23:15:09.499Z,84.77
2022-10-05T23:17:41.833Z,84.57
2022-10-05T23:20:14.278Z,84.60
2022-10-05T23:22:46.294Z,84.71
2022-10-05T23:25:19.178Z,84.62
2022-10-05T23:27:51.921Z,84.80
2022-10-05T23:30:24.329Z,84.81
2022-10-05T23:32:57.657Z,84.78
2022-10-05T23:35:29.843Z,85.20
2022-10-05T23:38:02.163Z,85.13
2022-10-05T23:40:34.270Z,84.98
2022-10-05T23:43:06.911Z,85.02
2022-10-05T23:45:39.240Z,85.14
2022-10-05T23:48:11.903Z,85.31
2022-10-05T23:50:44.126Z,85.13
2022-10-05T23:53:17.678Z,85.37
2022-10-05T23:55:52.611Z,85.41
2022-10-05T23:58:27.699Z,85.54
